Time;durP1;ratioP1;P1;durP2;ratioP2;P2;SDS_P1;SDS_P2;PMS_P1;PMS_P2;Temp;Humidity;BMP_temperature;BMP_pressure;BME280_temperature;BME280_humidity;BME280_pressure;Samples;Min_cycle;Max_cycle;Signal;HPM_P1;HPM_P2
2022/10/19 00:01:01;;;;;;;25.23;15.60;;;15.40;99.90;;;;;;5085745;28;20883;-66
2022/10/19 00:03:29;;;;;;;28.30;16.03;;;15.40;99.90;;;;;;5084225;28;21151;-66
2022/10/19 00:05:59;;;;;;;26.20;17.13;;;15.50;99.90;;;;;;5089972;28;20618;-66
2022/10/19 00:08:27;;;;;;;34.10;18.60;;;15.60;99.90;;;;;;5101074;28;20605;-66
2022/10/19 00:10:55;;;;;;;23.30;17.73;;;15.60;99.90;;;;;;5101329;28;20620;-66
2022/10/19 00:13:23;;;;;;;27.60;18.67;;;15.60;99.90;;;;;;5102687;28;20617;-66
2022/10/19 00:15:51;;;;;;;26.67;16.47;;;15.60;99.90;;;;;;5102167;28;21265;-66
2022/10/19 00:18:19;;;;;;;25.27;18.00;;;15.60;99.90;;;;;;5089719;28;20614;-66
2022/10/19 00:20:47;;;;;;;27.63;18.80;;;15.60;99.90;;;;;;5085956;28;20618;-66
2022/10/19 00:23:16;;;;;;;28.40;17.83;;;15.60;99.90;;;;;;5085417;28;20622;-66
2022/10/19 00:25:54;;;;;;;23.10;17.80;;;15.60;99.90;;;;;;5086692;28;20626;-66
2022/10/19 00:28:22;;;;;;;29.57;18.83;;;15.60;99.90;;;;;;5085799;28;20578;-66
2022/10/19 00:30:51;;;;;;;25.30;19.87;;;15.50;99.90;;;;;;5085419;28;20636;-67
2022/10/19 00:33:21;;;;;;;26.90;20.50;;;15.50;99.90;;;;;;5091852;28;21002;-66
2022/10/19 00:35:49;;;;;;;39.03;21.83;;;15.50;99.90;;;;;;5105957;28;20637;-67
2022/10/19 00:38:20;;;;;;;30.60;20.50;;;15.40;99.90;;;;;;5086982;28;20667;-67
2022/10/19 00:40:49;;;;;;;30.80;22.40;;;15.30;99.90;;;;;;5085948;28;20965;-66
2022/10/19 00:43:19;;;;;;;34.63;22.70;;;15.30;99.90;;;;;;5089555;28;21027;-65
2022/10/19 00:45:47;;;;;;;33.70;21.53;;;15.20;99.90;;;;;;5105574;28;20598;-66
2022/10/19 00:48:19;;;;;;;27.83;22.00;;;15.20;99.90;;;;;;5088704;28;20593;-65
2022/10/19 00:50:51;;;;;;;32.80;21.37;;;15.20;99.90;;;;;;5086719;28;21207;-65
2022/10/19 00:53:21;;;;;;;39.10;22.43;;;15.10;99.90;;;;;;5098367;28;20646;-65
2022/10/19 00:55:49;;;;;;;33.37;22.20;;;15.10;99.90;;;;;;5102346;28;20684;-65
2022/10/19 00:58:17;;;;;;;43.80;24.43;;;15.00;99.90;;;;;;5092035;28;21208;-65
2022/10/19 01:00:45;;;;;;;34.83;24.00;;;15.00;99.90;;;;;;5082694;28;20601;-65
2022/10/19 01:03:14;;;;;;;45.33;24.97;;;14.90;99.90;;;;;;5089703;28;20663;-65
2022/10/19 01:05:42;;;;;;;33.30;23.40;;;14.90;99.90;;;;;;5100154;28;20593;-65
2022/10/19 01:08:12;;;;;;;37.97;25.67;;;14.90;99.90;;;;;;5094080;28;20644;-66
2022/10/19 01:10:46;;;;;;;37.97;24.10;;;14.90;99.90;;;;;;5084147;28;20635;-66
2022/10/19 01:13:35;;;;;;;38.00;23.60;;;14.80;99.90;;;;;;5083837;28;20591;-67
2022/10/19 01:16:12;;;;;;;37.53;24.50;;;14.80;99.90;;;;;;5100681;28;20743;-65
2022/10/19 01:18:47;;;;;;;38.17;24.43;;;14.80;99.90;;;;;;5093046;28;20628;-66
2022/10/19 01:21:21;;;;;;;42.43;25.37;;;14.80;99.90;;;;;;5103703;28;20612;-67
2022/10/19 01:24:31;;;;;;;34.43;23.67;;;14.80;99.90;;;;;;5101979;28;20620;-66
2022/10/19 01:27:35;;;;;;;41.40;26.17;;;14.80;99.90;;;;;;5084725;28;20691;-66
2022/10/19 01:30:11;;;;;;;40.80;25.13;;;14.70;99.90;;;;;;5087888;28;20652;-66
2022/10/19 01:32:58;;;;;;;39.77;26.60;;;14.70;99.90;;;;;;5093769;28;20598;-66
2022/10/19 01:35:31;;;;;;;50.13;27.03;;;14.70;99.90;;;;;;5098964;28;20648;-66
2022/10/19 01:38:09;;;;;;;35.80;24.77;;;14.70;99.90;;;;;;5093900;28;20616;-66
2022/10/19 01:40:44;;;;;;;38.40;25.70;;;14.70;99.90;;;;;;5090291;28;20733;-66
2022/10/19 01:43:22;;;;;;;49.10;26.47;;;14.70;99.90;;;;;;5084138;28;20613;-66
2022/10/19 01:45:55;;;;;;;39.23;25.50;;;14.70;99.90;;;;;;5083554;28;20581;-66
2022/10/19 01:48:28;;;;;;;40.27;24.70;;;14.70;99.90;;;;;;5082910;28;20606;-67
2022/10/19 01:51:02;;;;;;;46.73;25.43;;;14.70;99.90;;;;;;5096894;28;20629;-66
2022/10/19 01:53:35;;;;;;;44.17;25.70;;;14.70;99.90;;;;;;5090871;28;20661;-67
2022/10/19 01:56:06;;;;;;;42.80;26.40;;;14.70;99.90;;;;;;5079647;28;20622;-66
2022/10/19 01:58:37;;;;;;;38.33;24.83;;;14.70;99.90;;;;;;5078864;28;20689;-66
2022/10/19 02:01:11;;;;;;;43.17;25.80;;;14.70;99.90;;;;;;5094879;28;22349;-66
2022/10/19 02:03:41;;;;;;;41.80;25.60;;;14.60;99.90;;;;;;5086668;28;20608;-66
2022/10/19 02:06:11;;;;;;;47.50;24.57;;;14.60;99.90;;;;;;5102468;28;20700;-66
2022/10/19 02:08:44;;;;;;;41.93;24.73;;;14.60;99.90;;;;;;5093332;28;20599;-66
2022/10/19 02:11:12;;;;;;;45.07;26.03;;;14.60;99.90;;;;;;5083532;28;20602;-66
2022/10/19 02:13:41;;;;;;;38.57;24.80;;;14.50;99.90;;;;;;5082394;28;20920;-66
2022/10/19 02:16:16;;;;;;;41.00;24.13;;;14.50;99.90;;;;;;5081626;28;20668;-67
2022/10/19 02:18:47;;;;;;;45.83;25.30;;;14.60;99.90;;;;;;5081515;28;20601;-67
2022/10/19 02:21:15;;;;;;;43.20;25.63;;;14.60;99.90;;;;;;5089777;28;20576;-67
2022/10/19 02:23:44;;;;;;;37.77;23.77;;;14.60;99.90;;;;;;5103540;28;20617;-67
2022/10/19 02:26:12;;;;;;;39.30;23.93;;;14.70;99.90;;;;;;5102244;28;20617;-67
2022/10/19 02:28:40;;;;;;;39.23;24.20;;;14.70;99.90;;;;;;5082502;28;20633;-67
2022/10/19 02:31:09;;;;;;;51.37;29.30;;;14.70;99.90;;;;;;5082895;28;20618;-68
2022/10/19 02:33:38;;;;;;;47.27;26.63;;;14.60;99.90;;;;;;5081513;28;20618;-67
2022/10/19 02:36:07;;;;;;;52.97;27.60;;;14.70;99.90;;;;;;5080927;28;20688;-67
2022/10/19 02:38:35;;;;;;;48.60;26.63;;;14.70;99.90;;;;;;5097646;28;20744;-67
2022/10/19 02:41:11;;;;;;;47.07;27.10;;;14.70;99.90;;;;;;5083166;28;20634;-66
2022/10/19 02:43:42;;;;;;;49.47;26.83;;;14.70;99.90;;;;;;5096276;28;20596;-67
2022/10/19 02:46:16;;;;;;;48.60;26.87;;;14.70;99.90;;;;;;5094918;28;20622;-67
2022/10/19 02:48:48;;;;;;;53.90;27.80;;;14.70;99.90;;;;;;5088272;28;20614;-67
2022/10/19 02:51:31;;;;;;;53.70;28.40;;;14.70;99.90;;;;;;5081507;28;20587;-67
2022/10/19 02:53:59;;;;;;;54.53;30.53;;;14.60;99.90;;;;;;5083340;28;20570;-67
2022/10/19 02:56:27;;;;;;;46.83;27.50;;;14.60;99.90;;;;;;5102712;28;20661;-67
2022/10/19 02:58:56;;;;;;;60.43;28.50;;;14.60;99.90;;;;;;5102376;28;20613;-66
2022/10/19 03:01:25;;;;;;;60.43;27.93;;;14.60;99.90;;;;;;5102245;28;20625;-66
2022/10/19 03:03:54;;;;;;;54.30;27.37;;;14.50;99.90;;;;;;5089729;28;20625;-66
2022/10/19 03:06:22;;;;;;;58.47;29.20;;;14.50;99.90;;;;;;5102171;28;20619;-66
2022/10/19 03:08:54;;;;;;;54.47;28.37;;;14.50;99.90;;;;;;5087472;28;20622;-68
2022/10/19 03:11:22;;;;;;;62.60;29.57;;;14.50;99.90;;;;;;5101476;28;20689;-66
2022/10/19 03:13:50;;;;;;;52.23;27.40;;;14.50;99.90;;;;;;5102175;28;21002;-66
2022/10/19 03:16:18;;;;;;;60.23;28.80;;;14.50;99.90;;;;;;5102197;28;20886;-66
2022/10/19 03:18:48;;;;;;;50.70;27.57;;;14.50;99.90;;;;;;5092918;28;20720;-66
2022/10/19 03:21:18;;;;;;;60.53;26.67;;;14.50;99.90;;;;;;5091706;28;20721;-67
2022/10/19 03:23:46;;;;;;;50.57;26.90;;;14.50;99.90;;;;;;5095631;28;20601;-67
2022/10/19 03:26:17;;;;;;;54.23;26.60;;;14.60;99.90;;;;;;5090041;28;20622;-66
2022/10/19 03:28:45;;;;;;;53.33;24.43;;;14.60;99.90;;;;;;5071457;28;20609;-66
2022/10/19 03:31:13;;;;;;;47.23;24.07;;;14.50;99.90;;;;;;5072374;28;21010;-66
2022/10/19 03:33:48;;;;;;;43.97;24.20;;;14.50;99.90;;;;;;5080826;28;21211;-66
2022/10/19 03:36:21;;;;;;;45.60;22.53;;;14.50;99.90;;;;;;5083926;28;20688;-66
2022/10/19 03:38:51;;;;;;;40.90;23.73;;;14.50;99.90;;;;;;5073386;28;20606;-66
2022/10/19 03:41:19;;;;;;;37.77;22.03;;;14.50;99.90;;;;;;5081870;28;20625;-65
2022/10/19 03:43:48;;;;;;;40.37;22.37;;;14.50;99.90;;;;;;5092304;28;20622;-65
2022/10/19 03:46:16;;;;;;;39.13;22.73;;;14.50;99.90;;;;;;5092262;28;20625;-65
2022/10/19 03:48:44;;;;;;;35.80;21.67;;;14.40;99.90;;;;;;5089781;28;20648;-65
2022/10/19 03:51:14;;;;;;;38.23;22.40;;;14.40;99.90;;;;;;5092075;28;21295;-65
2022/10/19 03:53:44;;;;;;;39.90;23.30;;;14.40;99.90;;;;;;5091614;28;20660;-65
2022/10/19 03:56:14;;;;;;;42.47;23.60;;;14.40;99.90;;;;;;5091611;28;20641;-65
2022/10/19 03:58:44;;;;;;;33.73;20.60;;;14.40;99.90;;;;;;5092314;28;20623;-65
2022/10/19 04:01:14;;;;;;;41.67;23.53;;;14.40;99.90;;;;;;5074594;28;20654;-66
2022/10/19 04:03:42;;;;;;;43.73;23.07;;;14.30;99.90;;;;;;5091328;28;20958;-65
2022/10/19 04:06:13;;;;;;;43.87;22.60;;;14.20;99.90;;;;;;5085534;28;20712;-64
2022/10/19 04:08:43;;;;;;;43.40;25.63;;;14.30;99.90;;;;;;5085623;28;20601;-64
2022/10/19 04:11:13;;;;;;;38.77;24.43;;;14.20;99.90;;;;;;5090507;28;20617;-65
2022/10/19 04:13:41;;;;;;;41.67;24.27;;;14.20;99.90;;;;;;5071952;28;20579;-65
2022/10/19 04:16:13;;;;;;;43.97;24.03;;;14.20;99.90;;;;;;5070578;28;20658;-65
2022/10/19 04:18:41;;;;;;;50.37;23.30;;;14.30;99.90;;;;;;5072009;28;20574;-64
2022/10/19 04:21:20;;;;;;;57.10;27.07;;;14.20;99.90;;;;;;5071673;28;20599;-64
2022/10/19 04:23:51;;;;;;;50.00;26.73;;;14.20;99.90;;;;;;5077123;28;20597;-65
2022/10/19 04:26:19;;;;;;;46.23;25.87;;;14.20;99.90;;;;;;5092160;28;20581;-65
2022/10/19 04:28:47;;;;;;;49.67;27.87;;;14.10;99.90;;;;;;5091987;28;20584;-65
2022/10/19 04:31:15;;;;;;;57.10;26.50;;;14.10;99.90;;;;;;5091967;28;21151;-65
2022/10/19 04:33:43;;;;;;;61.67;29.20;;;14.00;99.90;;;;;;5092100;28;20574;-65
2022/10/19 04:36:12;;;;;;;65.77;29.30;;;14.00;99.90;;;;;;5091916;28;20637;-65
2022/10/19 04:38:40;;;;;;;64.10;27.00;;;13.90;99.90;;;;;;5091790;28;20606;-65
2022/10/19 04:41:11;;;;;;;64.17;28.10;;;13.90;99.90;;;;;;5092540;28;20612;-65
2022/10/19 04:43:40;;;;;;;79.50;29.63;;;13.90;99.90;;;;;;5089734;28;20617;-65
2022/10/19 04:46:10;;;;;;;70.00;27.67;;;13.80;99.90;;;;;;5092059;28;20599;-65
2022/10/19 04:48:39;;;;;;;59.50;29.80;;;13.80;99.90;;;;;;5089507;28;21177;-65
2022/10/19 04:51:09;;;;;;;61.93;28.00;;;13.80;99.90;;;;;;5091403;28;20625;-65
2022/10/19 04:53:38;;;;;;;68.23;29.83;;;13.80;99.90;;;;;;5090800;28;20645;-65
2022/10/19 04:56:11;;;;;;;76.20;28.77;;;13.80;99.90;;;;;;5081953;28;20669;-65
2022/10/19 04:58:38;;;;;;;61.70;26.63;;;13.90;99.90;;;;;;5070007;28;21198;-65
2022/10/19 05:01:11;;;;;;;71.93;29.43;;;13.90;99.90;;;;;;5072166;28;20608;-65
2022/10/19 05:03:39;;;;;;;70.03;27.00;;;13.80;99.90;;;;;;5071529;28;20623;-65
2022/10/19 05:06:08;;;;;;;53.53;24.60;;;13.80;99.90;;;;;;5085010;28;20672;-65
2022/10/19 05:08:36;;;;;;;67.10;29.27;;;13.80;99.90;;;;;;5082966;28;20622;-65
2022/10/19 05:11:06;;;;;;;61.63;26.60;;;13.80;99.90;;;;;;5085519;28;20638;-65
2022/10/19 05:13:35;;;;;;;64.37;27.20;;;13.80;99.90;;;;;;5082027;28;20946;-65
2022/10/19 05:16:06;;;;;;;60.50;27.43;;;13.80;99.90;;;;;;5087126;28;20638;-65
2022/10/19 05:18:36;;;;;;;69.73;24.33;;;13.90;99.90;;;;;;5084153;28;20987;-66
2022/10/19 05:21:15;;;;;;;66.53;26.47;;;13.80;99.90;;;;;;5079962;28;20644;-67
2022/10/19 05:23:44;;;;;;;62.20;27.60;;;13.80;99.90;;;;;;5083659;28;21269;-66
2022/10/19 05:26:14;;;;;;;57.33;23.77;;;13.90;99.90;;;;;;5077007;28;20626;-66
2022/10/19 05:28:43;;;;;;;70.43;25.77;;;13.90;99.90;;;;;;5088207;28;20613;-66
2022/10/19 05:31:12;;;;;;;66.10;26.00;;;13.90;99.90;;;;;;5081436;28;20995;-66
2022/10/19 05:33:42;;;;;;;59.50;25.67;;;13.90;99.90;;;;;;5084895;28;20970;-67
2022/10/19 05:36:12;;;;;;;65.17;24.87;;;14.00;99.90;;;;;;5093764;28;21165;-66
2022/10/19 05:38:40;;;;;;;56.87;26.77;;;14.00;99.90;;;;;;5086502;28;20709;-66
2022/10/19 05:41:08;;;;;;;63.57;26.23;;;13.90;99.90;;;;;;5082455;28;21036;-66
2022/10/19 05:43:35;;;;;;;68.20;26.20;;;13.90;99.90;;;;;;5082024;28;20633;-67
2022/10/19 05:46:06;;;;;;;60.73;26.07;;;14.00;99.90;;;;;;5083180;28;20611;-66
2022/10/19 05:48:35;;;;;;;56.27;27.40;;;14.00;99.90;;;;;;5082274;28;20641;-66
2022/10/19 05:51:04;;;;;;;64.80;25.83;;;14.00;99.90;;;;;;5080052;28;20621;-68
2022/10/19 05:53:33;;;;;;;67.13;26.30;;;14.10;99.90;;;;;;5081894;28;20664;-66
2022/10/19 05:56:01;;;;;;;60.63;24.70;;;14.10;99.90;;;;;;5083358;28;20655;-66
2022/10/19 05:58:30;;;;;;;63.77;25.40;;;14.10;99.90;;;;;;5081431;28;20666;-66
2022/10/19 06:00:59;;;;;;;52.80;26.10;;;14.10;99.90;;;;;;5076414;28;20614;-66
2022/10/19 06:03:29;;;;;;;54.87;27.10;;;14.10;99.90;;;;;;5089261;28;20616;-66
2022/10/19 06:05:58;;;;;;;61.23;25.77;;;14.00;99.90;;;;;;5090433;28;20616;-66
2022/10/19 06:08:25;;;;;;;59.93;24.70;;;14.00;99.90;;;;;;5089419;28;20628;-66
2022/10/19 06:11:03;;;;;;;56.93;27.07;;;14.20;99.90;;;;;;5083252;28;20630;-66
2022/10/19 06:13:31;;;;;;;53.67;25.77;;;14.10;99.90;;;;;;5081084;28;20629;-66
2022/10/19 06:15:59;;;;;;;56.10;26.33;;;14.20;99.90;;;;;;5083541;28;20632;-66
2022/10/19 06:18:28;;;;;;;49.20;24.03;;;14.20;99.90;;;;;;5086230;28;21175;-66
2022/10/19 06:20:56;;;;;;;53.40;25.67;;;14.20;99.90;;;;;;5093096;28;20621;-66
2022/10/19 06:23:24;;;;;;;48.63;24.80;;;14.20;99.90;;;;;;5093603;28;20677;-66
2022/10/19 06:25:51;;;;;;;47.00;23.47;;;14.20;99.90;;;;;;5082739;28;20630;-66
2022/10/19 06:28:19;;;;;;;48.10;24.43;;;14.20;99.90;;;;;;5073128;28;21292;-66
2022/10/19 06:30:47;;;;;;;50.27;25.40;;;14.30;99.90;;;;;;5089099;28;20599;-64
2022/10/19 06:33:15;;;;;;;46.70;26.00;;;14.20;99.90;;;;;;5080620;28;20630;-64
2022/10/19 06:35:45;;;;;;;56.03;26.70;;;14.20;99.90;;;;;;5083837;28;20625;-64
2022/10/19 06:38:12;;;;;;;44.00;25.27;;;14.20;99.90;;;;;;5082491;28;20665;-66
2022/10/19 06:40:41;;;;;;;42.60;24.23;;;14.20;99.90;;;;;;5084653;28;20867;-67
2022/10/19 06:43:09;;;;;;;45.83;23.90;;;14.30;99.90;;;;;;5093441;28;20625;-66
2022/10/19 06:45:37;;;;;;;39.60;24.23;;;14.30;99.90;;;;;;5087474;28;20949;-66
2022/10/19 06:48:06;;;;;;;41.10;22.67;;;14.40;99.90;;;;;;5087947;28;21159;-66
2022/10/19 06:50:34;;;;;;;37.97;22.63;;;14.40;99.90;;;;;;5082089;28;20600;-66
2022/10/19 06:53:03;;;;;;;37.83;21.97;;;14.40;99.90;;;;;;5080583;28;20671;-65
2022/10/19 06:55:31;;;;;;;33.63;21.17;;;14.40;99.90;;;;;;5086208;28;20626;-66
2022/10/19 06:58:00;;;;;;;31.50;21.87;;;14.40;99.90;;;;;;5075640;28;20645;-66
2022/10/19 07:00:29;;;;;;;35.33;21.40;;;14.40;99.90;;;;;;5080701;28;20584;-66
2022/10/19 07:02:59;;;;;;;28.53;19.03;;;14.40;99.90;;;;;;5072195;28;21190;-66
2022/10/19 07:05:27;;;;;;;27.60;18.30;;;14.30;99.90;;;;;;5076999;28;20605;-66
2022/10/19 07:07:55;;;;;;;25.37;16.20;;;14.30;99.90;;;;;;5091882;28;20625;-66
2022/10/19 07:10:24;;;;;;;26.33;18.80;;;14.30;99.90;;;;;;5086476;28;20637;-66
2022/10/19 07:12:52;;;;;;;21.23;15.17;;;14.30;99.90;;;;;;5081366;28;20636;-68
2022/10/19 07:15:20;;;;;;;23.70;14.00;;;14.40;99.90;;;;;;5082665;28;20684;-68
2022/10/19 07:17:48;;;;;;;25.63;14.70;;;14.30;99.90;;;;;;5087142;28;20657;-68
2022/10/19 07:20:16;;;;;;;22.10;15.20;;;14.40;99.90;;;;;;5079976;28;20629;-67
2022/10/19 07:22:44;;;;;;;22.30;15.60;;;14.40;99.90;;;;;;5083265;28;20607;-68
2022/10/19 07:25:13;;;;;;;23.27;17.33;;;14.40;99.90;;;;;;5083476;28;20653;-67
2022/10/19 07:27:42;;;;;;;23.40;16.70;;;14.40;99.90;;;;;;5076489;28;20619;-67
2022/10/19 07:30:10;;;;;;;28.40;15.80;;;14.40;99.90;;;;;;5080461;28;20615;-66
2022/10/19 07:32:38;;;;;;;24.30;16.70;;;14.60;99.90;;;;;;5082552;28;21160;-66
2022/10/19 07:35:07;;;;;;;21.33;16.43;;;14.50;99.90;;;;;;5077283;28;20680;-70
2022/10/19 07:37:35;;;;;;;31.87;17.70;;;14.50;99.90;;;;;;5076015;28;20718;-66
2022/10/19 07:40:03;;;;;;;22.73;16.03;;;14.50;99.90;;;;;;5085493;28;20617;-66
2022/10/19 07:42:31;;;;;;;24.27;18.13;;;14.50;99.90;;;;;;5092376;28;20622;-65
2022/10/19 07:45:00;;;;;;;23.93;17.77;;;14.50;99.90;;;;;;5085507;28;20629;-65
2022/10/19 07:47:28;;;;;;;25.75;18.98;;;14.50;99.90;;;;;;5074145;28;20750;-66
2022/10/19 07:49:56;;;;;;;24.43;18.77;;;14.50;99.90;;;;;;5080921;28;20203;-65
2022/10/19 07:52:24;;;;;;;22.77;18.27;;;14.50;99.90;;;;;;5085519;28;20665;-66
2022/10/19 07:54:54;;;;;;;33.27;19.50;;;14.50;99.90;;;;;;5088018;28;20629;-65
2022/10/19 07:57:22;;;;;;;26.87;17.83;;;14.50;99.90;;;;;;5087929;28;20650;-67
2022/10/19 07:59:50;;;;;;;27.87;17.63;;;14.50;99.90;;;;;;5087803;28;21168;-67
2022/10/19 08:02:19;;;;;;;23.50;17.80;;;14.50;99.90;;;;;;5085967;28;20664;-66
2022/10/19 08:04:47;;;;;;;34.13;18.50;;;14.40;99.90;;;;;;5087895;28;20630;-67
2022/10/19 08:07:15;;;;;;;28.70;18.60;;;14.30;99.90;;;;;;5083448;28;20659;-66
2022/10/19 08:09:43;;;;;;;26.73;18.57;;;14.40;99.90;;;;;;5082769;28;20637;-66
2022/10/19 08:12:11;;;;;;;28.83;20.67;;;14.40;99.90;;;;;;5072811;28;20829;-66
2022/10/19 08:14:39;;;;;;;28.63;18.03;;;14.40;99.90;;;;;;5077384;28;20629;-66
2022/10/19 08:17:07;;;;;;;29.20;19.67;;;14.30;99.90;;;;;;5075858;28;20626;-66
2022/10/19 08:19:40;;;;;;;31.47;19.73;;;14.40;99.90;;;;;;5084640;28;20661;-66
2022/10/19 08:22:09;;;;;;;28.50;18.07;;;14.30;99.90;;;;;;5071701;28;20672;-66
2022/10/19 08:24:37;;;;;;;31.60;17.87;;;14.20;99.90;;;;;;5079237;28;21430;-65
2022/10/19 08:27:05;;;;;;;31.20;17.13;;;14.20;99.90;;;;;;5086386;28;21017;-65
2022/10/19 08:29:33;;;;;;;29.20;18.47;;;14.20;99.90;;;;;;5072238;28;20616;-66
2022/10/19 08:32:01;;;;;;;34.60;19.47;;;14.20;99.90;;;;;;5075433;28;20702;-66
2022/10/19 08:34:29;;;;;;;23.30;16.33;;;14.30;99.90;;;;;;5071445;28;20618;-66
2022/10/19 08:37:00;;;;;;;32.63;17.97;;;14.30;99.90;;;;;;5082373;28;20644;-66
2022/10/19 08:39:29;;;;;;;25.23;16.93;;;14.30;99.90;;;;;;5093275;28;20717;-66
2022/10/19 08:42:02;;;;;;;26.50;17.90;;;14.20;99.90;;;;;;5088313;28;20626;-66
2022/10/19 08:44:54;;;;;;;29.23;17.20;;;14.20;99.90;;;;;;5089155;28;20609;-66
2022/10/19 08:47:35;;;;;;;24.10;17.70;;;14.20;99.90;;;;;;5088612;28;20605;-66
2022/10/19 08:50:16;;;;;;;24.10;17.03;;;14.20;99.90;;;;;;5078875;28;20606;-66
2022/10/19 08:52:50;;;;;;;24.20;15.80;;;14.20;99.90;;;;;;5075318;28;20642;-65
2022/10/19 08:55:25;;;;;;;28.23;17.30;;;14.20;99.90;;;;;;5085479;28;20601;-66
2022/10/19 08:58:00;;;;;;;28.37;16.13;;;14.20;99.90;;;;;;5093495;28;20661;-66
2022/10/19 09:00:37;;;;;;;28.80;18.27;;;14.20;99.90;;;;;;5091738;28;20600;-66
2022/10/19 09:03:15;;;;;;;23.30;16.33;;;14.20;99.90;;;;;;5078204;28;20618;-66
2022/10/19 09:05:48;;;;;;;22.07;15.60;;;14.30;99.90;;;;;;5093130;28;20619;-66
2022/10/19 09:08:19;;;;;;;24.73;16.33;;;14.20;99.90;;;;;;5081726;28;20974;-66
2022/10/19 09:10:50;;;;;;;18.73;14.63;;;14.30;99.90;;;;;;5085772;28;20602;-66
2022/10/19 09:13:27;;;;;;;21.30;17.07;;;14.30;99.90;;;;;;5074092;28;20597;-66
2022/10/19 09:15:55;;;;;;;19.30;14.87;;;14.40;99.90;;;;;;5081722;28;21017;-66
2022/10/19 09:18:26;;;;;;;18.33;14.50;;;14.50;99.90;;;;;;5074350;28;20685;-66
2022/10/19 09:21:00;;;;;;;17.90;12.73;;;14.60;99.90;;;;;;5073814;28;20602;-66
2022/10/19 09:23:34;;;;;;;16.73;14.00;;;14.50;99.90;;;;;;5094103;28;20627;-66
2022/10/19 09:26:05;;;;;;;18.50;13.20;;;14.40;99.90;;;;;;5091348;28;20599;-67
2022/10/19 09:28:44;;;;;;;18.37;14.20;;;14.50;99.90;;;;;;5074964;28;20582;-67
2022/10/19 09:31:18;;;;;;;17.40;13.43;;;14.60;99.90;;;;;;5091188;28;20606;-67
2022/10/19 09:33:51;;;;;;;16.50;13.67;;;14.50;99.90;;;;;;5092750;28;20587;-67
2022/10/19 09:36:19;;;;;;;16.93;13.70;;;14.70;99.90;;;;;;5088895;28;20621;-66
2022/10/19 09:38:50;;;;;;;17.00;14.03;;;14.70;99.90;;;;;;5093370;28;20652;-67
2022/10/19 09:41:21;;;;;;;18.33;12.63;;;14.80;99.90;;;;;;5074275;28;20626;-66
2022/10/19 09:43:53;;;;;;;16.50;12.43;;;14.90;99.90;;;;;;5078026;28;20638;-66
2022/10/19 09:46:32;;;;;;;20.57;12.93;;;14.90;99.90;;;;;;5090635;28;20655;-66
2022/10/19 09:49:03;;;;;;;15.03;11.70;;;14.90;99.90;;;;;;5080811;28;20626;-66
2022/10/19 09:51:41;;;;;;;17.47;14.20;;;14.90;99.90;;;;;;5076943;28;21424;-66
2022/10/19 09:54:25;;;;;;;13.17;10.90;;;15.00;99.90;;;;;;5089416;28;21177;-64
2022/10/19 09:56:54;;;;;;;22.43;12.93;;;15.20;99.90;;;;;;5084275;28;21274;-64
2022/10/19 09:59:24;;;;;;;18.40;10.80;;;15.30;99.90;;;;;;5083040;28;20657;-65
2022/10/19 10:02:15;;;;;;;17.60;12.60;;;15.20;99.90;;;;;;5087232;28;20680;-66
2022/10/19 10:04:46;;;;;;;16.53;11.33;;;15.10;99.90;;;;;;5072961;28;20578;-66
2022/10/19 10:07:17;;;;;;;18.93;11.50;;;15.10;99.90;;;;;;5072653;28;20613;-66
2022/10/19 10:09:47;;;;;;;13.90;11.80;;;15.20;99.90;;;;;;5082419;28;20620;-66
2022/10/19 10:12:16;;;;;;;17.70;12.70;;;15.10;99.90;;;;;;5072938;28;20644;-66
2022/10/19 10:14:45;;;;;;;15.63;11.30;;;15.10;99.90;;;;;;5086129;28;20630;-66
2022/10/19 10:17:17;;;;;;;18.40;13.00;;;15.20;99.90;;;;;;5090005;28;20637;-68
2022/10/19 10:20:06;;;;;;;23.03;11.87;;;15.30;99.90;;;;;;5073565;28;20638;-66
2022/10/19 10:22:36;;;;;;;17.60;10.83;;;15.30;99.90;;;;;;5088071;28;20610;-66
2022/10/19 10:25:16;;;;;;;20.23;11.63;;;15.40;99.90;;;;;;5087218;28;20625;-66
2022/10/19 10:27:55;;;;;;;13.13;10.67;;;15.60;99.90;;;;;;5079803;28;20605;-65
2022/10/19 10:30:23;;;;;;;15.30;11.70;;;15.60;99.90;;;;;;5090448;28;21150;-66
2022/10/19 10:32:54;;;;;;;18.47;12.17;;;15.60;99.90;;;;;;5073257;28;20627;-66
2022/10/19 10:35:27;;;;;;;15.50;11.50;;;15.60;99.90;;;;;;5076311;28;20624;-66
2022/10/19 10:38:07;;;;;;;21.50;13.83;;;15.60;99.90;;;;;;5085126;28;21205;-66
2022/10/19 10:40:39;;;;;;;12.63;11.33;;;15.50;99.90;;;;;;5074299;28;21229;-66
2022/10/19 10:43:09;;;;;;;14.30;10.23;;;15.60;99.90;;;;;;5081739;28;20612;-66
2022/10/19 10:45:41;;;;;;;12.43;11.00;;;15.80;99.90;;;;;;5087430;28;20614;-66
2022/10/19 10:48:26;;;;;;;14.40;11.70;;;15.80;99.90;;;;;;5087013;28;20998;-66
2022/10/19 10:50:55;;;;;;;13.30;11.47;;;15.80;99.90;;;;;;5071979;28;20610;-66
2022/10/19 10:53:34;;;;;;;13.47;10.77;;;15.80;99.90;;;;;;5082237;28;20658;-66
2022/10/19 10:56:07;;;;;;;10.97;9.87;;;16.10;99.90;;;;;;5089370;28;20636;-66
2022/10/19 10:58:42;;;;;;;12.60;10.87;;;16.10;99.90;;;;;;5089409;28;20602;-66
2022/10/19 11:01:19;;;;;;;12.20;10.60;;;16.20;99.90;;;;;;5075778;28;20641;-66
2022/10/19 11:03:54;;;;;;;12.90;10.40;;;16.30;99.90;;;;;;5071957;28;20585;-66
2022/10/19 11:06:25;;;;;;;12.13;10.90;;;16.10;99.90;;;;;;5070984;28;20616;-67
2022/10/19 11:09:02;;;;;;;13.50;10.77;;;16.20;99.90;;;;;;5078490;28;20673;-66
2022/10/19 11:11:36;;;;;;;12.43;10.00;;;16.30;99.90;;;;;;5079943;28;21159;-67
2022/10/19 11:14:30;;;;;;;13.00;10.57;;;16.30;99.90;;;;;;5073431;28;20603;-66
2022/10/19 11:17:04;;;;;;;11.50;9.00;;;16.40;99.90;;;;;;5070243;28;20673;-66
2022/10/19 11:19:35;;;;;;;11.10;9.70;;;16.50;99.90;;;;;;5085653;28;20967;-66
2022/10/19 11:22:13;;;;;;;10.30;9.40;;;16.50;99.90;;;;;;5087147;28;20594;-66
2022/10/19 11:24:56;;;;;;;11.07;8.77;;;16.50;99.90;;;;;;5072790;28;20631;-67
2022/10/19 11:27:39;;;;;;;10.37;9.00;;;16.50;99.90;;;;;;5090605;28;20960;-67
2022/10/19 11:30:13;;;;;;;11.30;9.10;;;16.40;99.90;;;;;;5075853;28;21166;-65
2022/10/19 11:32:52;;;;;;;11.90;10.07;;;16.40;99.90;;;;;;5071344;28;20905;-65
2022/10/19 11:35:35;;;;;;;9.33;8.43;;;16.20;99.90;;;;;;5088987;28;20616;-66
2022/10/19 11:38:23;;;;;;;9.17;8.27;;;16.20;99.90;;;;;;5091007;28;20598;-66
2022/10/19 11:40:58;;;;;;;10.07;9.17;;;16.20;99.90;;;;;;5091125;28;20718;-65
2022/10/19 11:43:34;;;;;;;11.30;9.20;;;16.20;99.90;;;;;;5091091;28;20608;-66
2022/10/19 11:46:11;;;;;;;9.43;8.53;;;16.20;99.90;;;;;;5075038;28;20602;-67
2022/10/19 11:49:00;;;;;;;11.90;9.00;;;16.30;99.90;;;;;;5081166;28;20582;-66
2022/10/19 11:51:36;;;;;;;10.47;8.00;;;16.20;99.90;;;;;;5081698;28;20981;-66
2022/10/19 11:54:18;;;;;;;9.47;8.50;;;16.10;99.90;;;;;;5081488;28;20598;-66
2022/10/19 11:56:52;;;;;;;10.20;8.47;;;16.10;99.90;;;;;;5077262;28;20654;-66
2022/10/19 11:59:31;;;;;;;10.23;9.23;;;15.90;99.90;;;;;;5085295;28;20632;-66
2022/10/19 12:02:11;;;;;;;12.30;8.87;;;16.00;99.90;;;;;;5083146;28;20613;-66
2022/10/19 12:04:54;;;;;;;15.17;9.80;;;16.20;99.90;;;;;;5078017;28;21005;-66
2022/10/19 12:07:39;;;;;;;10.80;9.10;;;16.40;99.90;;;;;;5081359;28;21182;-66
2022/10/19 12:10:20;;;;;;;10.60;9.63;;;16.30;99.90;;;;;;5079023;28;20605;-66
2022/10/19 12:12:52;;;;;;;11.67;8.80;;;16.40;99.90;;;;;;5082136;28;20626;-66
2022/10/19 12:15:28;;;;;;;9.53;7.97;;;16.40;99.90;;;;;;5081851;28;20609;-66
2022/10/19 12:18:01;;;;;;;8.40;7.50;;;16.50;99.90;;;;;;5088955;28;20609;-66
2022/10/19 12:20:34;;;;;;;8.93;8.13;;;16.50;99.90;;;;;;5078024;28;20644;-66
2022/10/19 12:23:23;;;;;;;10.23;7.77;;;16.50;99.90;;;;;;5076152;28;20609;-65
2022/10/19 12:25:53;;;;;;;7.80;7.10;;;16.50;99.90;;;;;;5089793;28;20588;-65
2022/10/19 12:28:26;;;;;;;7.40;6.80;;;16.50;99.90;;;;;;5071897;28;20614;-66
2022/10/19 12:30:57;;;;;;;6.13;5.40;;;16.60;99.90;;;;;;5078199;28;20603;-67
2022/10/19 12:33:31;;;;;;;6.70;6.10;;;16.70;99.90;;;;;;5072025;28;20913;-66
2022/10/19 12:36:11;;;;;;;5.17;4.70;;;16.80;99.90;;;;;;5077118;28;20621;-65
2022/10/19 12:38:50;;;;;;;5.30;4.80;;;17.00;99.90;;;;;;5080963;28;20613;-67
2022/10/19 12:41:26;;;;;;;6.40;5.80;;;17.30;99.90;;;;;;5076112;28;20653;-67
2022/10/19 12:44:21;;;;;;;4.90;4.60;;;17.40;99.90;;;;;;5079517;28;20606;-66
2022/10/19 12:46:53;;;;;;;6.17;5.63;;;17.40;99.90;;;;;;5078243;28;20616;-65
2022/10/19 12:49:47;;;;;;;4.60;4.30;;;17.70;99.90;;;;;;5090750;28;20622;-67
2022/10/19 12:52:34;;;;;;;4.67;4.33;;;17.70;99.90;;;;;;5052543;28;20678;-66